Leon, Minnesota
Current Conditions -  °F | °C
As of 3:55 AM on Wednesday 26 Nov 2014 (Local Time) from KFSE Reporting Station
Overcast Overcast  
Wind Chill: -6°   Ceiling: 9500
Heat Index: 10°   Visibility: 10mi
Dew Point:   Wind: 15mph
Humidity: 85%   Direction: 360°N
Pressure: 30.16"   Gusts: NA
Location:  47.7926°N, 95.3062°W
Report Text: KFSE 260955Z AUTO 36013KT 10SM OVC095 M12/M14 A3016 RMK AO2
Loading
Personal Weather Stations






























Interactive Weather Map New forecast layout! Learn more

10-Day Weather Forecast

Advertisements
Track Severe Weather on mobile